createdAt,value
2023-04-20T00:01:19.932Z,8.41
2023-04-20T00:04:22.579Z,8.41
2023-04-20T00:07:25.183Z,8.49
2023-04-20T00:10:27.703Z,8.44
2023-04-20T00:13:29.801Z,8.42
2023-04-20T00:16:32.568Z,8.54
2023-04-20T00:19:34.942Z,8.36
2023-04-20T00:22:37.565Z,8.40
2023-04-20T00:25:39.684Z,8.61
2023-04-20T00:28:42.210Z,8.66
2023-04-20T00:31:44.327Z,8.82
2023-04-20T00:34:49.603Z,8.78
2023-04-20T00:37:51.988Z,8.86
2023-04-20T00:40:57.773Z,8.86
2023-04-20T00:44:00.028Z,8.94
2023-04-20T00:47:02.667Z,9.03
2023-04-20T00:50:05.073Z,8.93
2023-04-20T00:53:08.247Z,8.85
2023-04-20T00:56:12.221Z,8.76
2023-04-20T00:59:16.214Z,8.96
2023-04-20T01:02:18.961Z,9.06
2023-04-20T01:05:21.816Z,8.90
2023-04-20T01:08:27.597Z,8.70
2023-04-20T01:11:30.977Z,8.77
2023-04-20T01:14:33.216Z,8.67
2023-04-20T01:17:38.149Z,8.34
2023-04-20T01:20:40.463Z,8.29
2023-04-20T01:23:43.277Z,8.25
2023-04-20T01:26:45.500Z,8.20
2023-04-20T01:29:47.970Z,8.56
2023-04-20T01:32:50.309Z,8.22
2023-04-20T01:35:53.645Z,8.10
2023-04-20T01:38:57.293Z,7.97
2023-04-20T01:41:59.913Z,8.04
2023-04-20T01:45:02.083Z,7.94
2023-04-20T01:48:04.786Z,7.95
2023-04-20T01:51:09.575Z,7.73
2023-04-20T01:54:12.271Z,7.68
2023-04-20T01:57:14.936Z,7.60
2023-04-20T02:00:17.695Z,7.74
2023-04-20T02:03:20.353Z,7.92
2023-04-20T02:06:22.795Z,7.89
2023-04-20T02:09:25.300Z,7.93
2023-04-20T02:12:27.536Z,7.88
2023-04-20T02:15:30.097Z,7.94
2023-04-20T02:18:33.102Z,7.90
2023-04-20T02:21:35.498Z,7.91
2023-04-20T02:24:38.342Z,8.10
2023-04-20T02:27:40.529Z,7.97
2023-04-20T02:30:43.457Z,7.96
2023-04-20T02:33:47.876Z,7.94
2023-04-20T02:36:50.484Z,7.90
2023-04-20T02:39:52.669Z,8.09
2023-04-20T02:42:55.091Z,7.97
2023-04-20T02:45:57.648Z,7.94
2023-04-20T02:49:00.779Z,7.66
2023-04-20T02:52:03.868Z,7.53
2023-04-20T02:55:07.079Z,7.52
2023-04-20T02:58:10.376Z,7.53
2023-04-20T03:01:13.625Z,7.49
2023-04-20T03:04:16.130Z,7.35
2023-04-20T03:07:19.815Z,7.56
2023-04-20T03:10:22.197Z,7.68
2023-04-20T03:13:25.556Z,7.49
2023-04-20T03:16:28.033Z,7.66
2023-04-20T03:19:30.879Z,7.97
2023-04-20T03:22:33.044Z,8.05
2023-04-20T03:25:36.074Z,8.06
2023-04-20T03:28:38.783Z,8.09
2023-04-20T03:31:41.627Z,8.10
2023-04-20T03:34:44.211Z,8.00
2023-04-20T03:37:46.731Z,8.05
2023-04-20T03:40:48.832Z,8.10
2023-04-20T03:43:51.375Z,8.02
2023-04-20T03:46:53.543Z,8.00
2023-04-20T03:49:56.090Z,7.73
2023-04-20T03:52:58.314Z,7.92
2023-04-20T03:56:01.351Z,8.10
2023-04-20T03:59:03.697Z,8.36
2023-04-20T04:02:06.323Z,8.51
2023-04-20T04:05:09.457Z,8.24
2023-04-20T04:08:11.963Z,8.04
2023-04-20T04:11:14.378Z,7.92
2023-04-20T04:14:16.773Z,8.02
2023-04-20T04:17:19.187Z,7.89
2023-04-20T04:20:21.322Z,7.87
2023-04-20T04:23:24.147Z,7.71
2023-04-20T04:26:27.197Z,7.96
2023-04-20T04:29:29.624Z,7.94
2023-04-20T04:32:34.597Z,8.28
2023-04-20T04:35:37.973Z,8.32
2023-04-20T04:38:40.984Z,8.38
2023-04-20T04:41:43.723Z,8.57
2023-04-20T04:44:47.716Z,8.63
2023-04-20T04:47:54.088Z,8.88
2023-04-20T04:50:56.272Z,9.12
2023-04-20T04:54:03.534Z,9.52
2023-04-20T04:57:07.194Z,10.05
2023-04-20T05:00:13.709Z,10.71
2023-04-20T05:03:22.425Z,11.97
2023-04-20T05:06:34.550Z,13.64
2023-04-20T05:09:37.647Z,14.75
2023-04-20T05:12:40.857Z,15.23
2023-04-20T05:15:48.738Z,16.44
2023-04-20T05:18:52.476Z,17.50
2023-04-20T05:21:55.110Z,17.91
2023-04-20T05:25:08.659Z,18.24
2023-04-20T06:16:35.286Z,24.08
2023-04-20T06:19:37.746Z,24.35
2023-04-20T06:22:45.564Z,23.73
2023-04-20T06:25:47.931Z,24.06
2023-04-20T06:28:51.943Z,24.06
2023-04-20T06:31:54.474Z,24.25
2023-04-20T06:34:56.486Z,25.60
2023-04-20T06:37:59.572Z,26.43
2023-04-20T06:41:04.601Z,25.43
2023-04-20T06:44:06.902Z,25.94
2023-04-20T06:47:08.888Z,26.68
2023-04-20T06:50:11.222Z,26.42
2023-04-20T06:53:13.170Z,26.86
2023-04-20T06:56:15.630Z,26.77
2023-04-20T06:59:18.828Z,26.84
2023-04-20T07:02:21.554Z,26.48
2023-04-20T07:05:23.890Z,26.08
2023-04-20T07:08:26.161Z,26.31
2023-04-20T07:11:28.846Z,26.61
2023-04-20T07:14:31.070Z,26.11
2023-04-20T07:17:33.194Z,25.90
2023-04-20T07:20:35.514Z,26.24
2023-04-20T07:23:37.489Z,25.94
2023-04-20T07:26:39.791Z,26.26
2023-04-20T07:29:41.799Z,26.69
2023-04-20T07:32:44.170Z,25.97
2023-04-20T07:35:46.218Z,25.75
2023-04-20T07:38:49.470Z,25.79
2023-04-20T07:41:51.413Z,24.63
2023-04-20T07:44:54.217Z,23.73
2023-04-20T07:47:57.420Z,24.05
2023-04-20T07:50:59.874Z,23.49
2023-04-20T07:54:01.817Z,22.74
2023-04-20T07:57:04.101Z,21.79
2023-04-20T08:00:07.348Z,21.69
2023-04-20T08:03:15.235Z,21.01
2023-04-20T08:06:17.733Z,20.41
2023-04-20T10:16:24.113Z,19.23
2023-04-20T10:19:47.533Z,18.92
2023-04-20T10:22:51.114Z,19.03
2023-04-20T10:26:01.002Z,19.39
2023-04-20T10:29:03.973Z,19.95
2023-04-20T10:32:07.601Z,19.70
2023-04-20T10:35:13.988Z,19.60
2023-04-20T10:38:41.748Z,19.52
2023-04-20T10:41:57.530Z,19.85
2023-04-20T10:45:04.040Z,19.83
2023-04-20T10:48:09.851Z,19.82
2023-04-20T10:51:15.131Z,20.26
2023-04-20T10:54:18.588Z,20.40
2023-04-20T10:57:21.460Z,19.89
2023-04-20T11:00:25.549Z,19.68
2023-04-20T11:03:29.413Z,19.56
2023-04-20T11:06:35.291Z,19.77
2023-04-20T11:09:40.011Z,19.89
2023-04-20T11:12:42.079Z,20.10
2023-04-20T11:15:44.896Z,20.20
2023-04-20T11:18:51.969Z,19.82
2023-04-20T11:21:54.277Z,19.99
2023-04-20T11:25:05.493Z,20.09
2023-04-20T11:28:09.563Z,19.94
2023-04-20T11:31:18.737Z,19.88
2023-04-20T11:34:24.145Z,20.15
2023-04-20T11:37:28.485Z,20.45
2023-04-20T11:43:49.138Z,20.70
2023-04-20T11:46:56.347Z,20.54
2023-04-20T11:49:58.767Z,20.38
2023-04-20T11:53:02.601Z,20.31
2023-04-20T11:56:06.197Z,20.33
2023-04-20T11:59:09.258Z,20.58
2023-04-20T12:02:11.561Z,20.62
2023-04-20T12:05:14.350Z,20.53
2023-04-20T12:08:17.592Z,20.42
2023-04-20T12:11:20.385Z,20.69
2023-04-20T12:14:22.624Z,20.86
2023-04-20T12:17:26.244Z,21.10
2023-04-20T12:20:28.768Z,20.87
2023-04-20T12:23:31.419Z,20.88
2023-04-20T12:26:38.257Z,20.92
2023-04-20T12:29:41.241Z,20.73
2023-04-20T12:32:52.397Z,20.29
2023-04-20T12:35:55.747Z,20.49
2023-04-20T12:38:58.617Z,20.44
2023-04-20T12:42:02.481Z,20.34
2023-04-20T12:45:05.011Z,20.36
2023-04-20T12:48:08.715Z,20.60
2023-04-20T12:51:11.579Z,20.84
2023-04-20T12:54:14.263Z,20.97
2023-04-20T12:57:17.092Z,20.85
2023-04-20T13:00:19.704Z,20.75
2023-04-20T13:03:25.479Z,20.86
2023-04-20T13:06:30.018Z,20.76
2023-04-20T13:09:32.718Z,20.74
2023-04-20T13:12:38.319Z,20.69
2023-04-20T13:15:41.006Z,20.66
2023-04-20T13:18:44.318Z,20.64
2023-04-20T13:21:46.622Z,20.55
2023-04-20T13:24:49.238Z,20.47
2023-04-20T13:27:55.320Z,20.59
2023-04-20T13:30:58.851Z,21.03
2023-04-20T13:34:01.407Z,21.42
2023-04-20T13:37:05.147Z,21.66
2023-04-20T13:40:08.972Z,21.88
2023-04-20T13:43:12.837Z,21.60
2023-04-20T13:46:16.071Z,21.29
2023-04-20T13:49:22.934Z,21.11
2023-04-20T13:52:26.182Z,20.96
2023-04-20T13:55:29.286Z,21.02
2023-04-20T13:58:31.939Z,21.17
2023-04-20T14:01:35.373Z,21.00
2023-04-20T14:04:39.798Z,21.07
2023-04-20T14:07:42.145Z,21.14
2023-04-20T14:10:44.781Z,20.70
2023-04-20T14:13:47.441Z,20.56
2023-04-20T14:16:50.624Z,20.38
2023-04-20T14:19:53.022Z,20.11
2023-04-20T14:22:55.455Z,20.04
2023-04-20T14:25:57.910Z,20.08
2023-04-20T14:29:00.527Z,20.00
2023-04-20T14:32:02.723Z,19.92
2023-04-20T14:35:05.729Z,20.02
2023-04-20T14:38:08.238Z,19.95
2023-04-20T14:41:10.738Z,19.86
2023-04-20T14:44:13.021Z,19.83
2023-04-20T14:47:15.883Z,19.73
2023-04-20T14:50:18.010Z,19.45
2023-04-20T14:53:20.973Z,19.45
2023-04-20T14:56:23.519Z,19.62
2023-04-20T14:59:27.194Z,19.70
2023-04-20T15:02:29.460Z,19.63
2023-04-20T15:05:33.364Z,19.41
2023-04-20T15:08:35.848Z,19.43
2023-04-20T15:11:38.196Z,19.51
2023-04-20T15:14:40.334Z,19.40
2023-04-20T15:17:42.713Z,19.43
2023-04-20T15:20:48.067Z,19.52
2023-04-20T15:23:50.713Z,19.55
2023-04-20T15:26:52.742Z,19.59
2023-04-20T15:29:56.833Z,19.63
2023-04-20T15:33:05.110Z,19.72
2023-04-20T15:36:08.216Z,19.95
2023-04-20T15:39:10.224Z,19.95
2023-04-20T15:42:12.586Z,20.03
2023-04-20T15:45:14.578Z,20.13
2023-04-20T15:48:17.810Z,20.12
2023-04-20T15:51:20.189Z,20.26
2023-04-20T15:54:23.736Z,20.28
2023-04-20T15:57:25.854Z,20.08
2023-04-20T16:00:28.294Z,19.93
2023-04-20T16:03:30.737Z,19.92
2023-04-20T16:06:32.895Z,19.69
2023-04-20T16:09:35.589Z,19.43
2023-04-20T16:12:40.309Z,19.10
2023-04-20T16:15:42.602Z,18.92
2023-04-20T16:18:44.648Z,18.58
2023-04-20T16:21:46.998Z,18.64
2023-04-20T16:24:49.167Z,18.42
2023-04-20T16:27:51.888Z,18.37
2023-04-20T16:30:53.949Z,18.20
2023-04-20T16:33:58.595Z,17.98
2023-04-20T16:37:00.768Z,17.92
2023-04-20T16:40:05.489Z,17.77
2023-04-20T16:43:07.463Z,17.73
2023-04-20T16:46:13.446Z,17.66
2023-04-20T16:49:15.796Z,17.60
2023-04-20T16:52:18.460Z,17.52
2023-04-20T16:55:20.671Z,17.44
2023-04-20T16:58:23.004Z,17.33
2023-04-20T17:01:25.142Z,17.16
2023-04-20T17:04:27.830Z,17.25
2023-04-20T17:07:29.922Z,17.18
2023-04-20T17:10:33.264Z,17.14
2023-04-20T17:13:35.267Z,17.06
2023-04-20T17:16:37.633Z,17.02
2023-04-20T17:19:40.748Z,16.86
2023-04-20T17:22:43.008Z,16.65
2023-04-20T17:25:47.308Z,16.74
2023-04-20T17:28:49.634Z,16.69
2023-04-20T17:31:51.701Z,16.59
2023-04-20T17:34:54.321Z,16.54
2023-04-20T17:37:56.370Z,16.49
2023-04-20T17:40:58.758Z,16.42
2023-04-20T17:44:00.812Z,16.30
2023-04-20T17:47:03.108Z,16.28
2023-04-20T17:50:06.027Z,16.24
2023-04-20T17:53:08.535Z,16.17
2023-04-20T17:56:11.455Z,16.22
2023-04-20T17:59:13.822Z,16.20
2023-04-20T18:02:16.114Z,16.23
2023-04-20T18:05:18.572Z,16.20
2023-04-20T18:08:21.163Z,16.17
2023-04-20T18:11:23.633Z,16.21
2023-04-20T18:14:25.808Z,16.11
2023-04-20T18:17:28.188Z,16.16
2023-04-20T18:20:32.273Z,16.08
2023-04-20T18:23:35.039Z,15.97
2023-04-20T18:26:37.072Z,15.95
2023-04-20T18:29:39.346Z,15.96
2023-04-20T18:32:41.335Z,15.94
2023-04-20T18:35:44.462Z,16.01
2023-04-20T18:38:46.488Z,16.01
2023-04-20T18:41:48.793Z,16.02
2023-04-20T18:44:52.852Z,15.96
2023-04-20T18:47:56.061Z,15.94
2023-04-20T18:51:01.649Z,16.04
2023-04-20T18:54:04.111Z,15.94
2023-04-20T18:57:06.461Z,16.04
2023-04-20T19:00:09.810Z,15.93
2023-04-20T19:03:12.208Z,15.89
2023-04-20T19:06:14.621Z,15.92
2023-04-20T19:09:16.684Z,15.80
2023-04-20T19:12:19.192Z,15.84
2023-04-20T19:15:25.547Z,15.80
2023-04-20T19:18:28.030Z,15.83
2023-04-20T19:21:30.167Z,15.71
2023-04-20T19:24:32.859Z,15.62
2023-04-20T19:27:34.839Z,15.60
2023-04-20T19:30:37.144Z,15.63
2023-04-20T19:33:40.243Z,15.45
2023-04-20T19:36:44.920Z,15.39
2023-04-20T19:39:47.008Z,15.34
2023-04-20T19:42:50.660Z,15.37
2023-04-20T19:45:53.379Z,15.29
2023-04-20T19:48:55.717Z,15.28
2023-04-20T19:51:57.873Z,15.27
2023-04-20T19:55:00.202Z,15.30
2023-04-20T19:58:02.245Z,15.23
2023-04-20T20:01:04.949Z,15.19
2023-04-20T20:04:07.558Z,15.24
2023-04-20T20:07:10.089Z,15.22
2023-04-20T20:10:12.664Z,15.20
2023-04-20T20:13:14.604Z,15.13
2023-04-20T20:16:17.107Z,15.05
2023-04-20T20:19:24.569Z,15.06
2023-04-20T20:22:26.909Z,14.99
2023-04-20T20:25:29.259Z,15.00
2023-04-20T20:28:31.655Z,14.93
2023-04-20T20:31:33.718Z,14.82
2023-04-20T20:34:36.282Z,14.76
2023-04-20T20:37:41.665Z,14.57
2023-04-20T20:40:44.626Z,14.56
2023-04-20T20:43:47.265Z,14.54
2023-04-20T20:46:49.809Z,14.42
2023-04-20T20:49:52.373Z,14.30
2023-04-20T20:52:54.768Z,14.15
2023-04-20T20:55:56.822Z,14.17
2023-04-20T20:58:59.795Z,14.13
2023-04-20T21:02:03.434Z,14.20
2023-04-20T21:05:06.652Z,14.21
2023-04-20T21:08:10.080Z,14.19
2023-04-20T21:11:12.532Z,14.16
2023-04-20T21:14:14.594Z,14.10
2023-04-20T21:17:17.051Z,14.00
2023-04-20T21:20:19.105Z,13.97
2023-04-20T21:23:21.402Z,13.91
2023-04-20T21:26:23.417Z,13.79
2023-04-20T21:29:26.026Z,13.73
2023-04-20T21:32:28.083Z,13.57
2023-04-20T21:35:31.049Z,13.51
2023-04-20T21:38:33.178Z,13.39
2023-04-20T21:41:35.580Z,13.27
2023-04-20T21:44:37.584Z,13.29
2023-04-20T21:47:40.152Z,13.18
2023-04-20T21:50:42.122Z,13.14
2023-04-20T21:53:44.710Z,13.14
2023-04-20T21:56:46.986Z,13.13
2023-04-20T21:59:49.356Z,13.11
2023-04-20T22:02:51.819Z,13.01
2023-04-20T22:05:54.523Z,13.12
2023-04-20T22:08:57.157Z,13.08
2023-04-20T22:12:01.960Z,12.98
2023-04-20T22:15:04.253Z,12.91
2023-04-20T22:18:09.876Z,12.88
2023-04-20T22:21:11.941Z,12.84
2023-04-20T22:24:14.278Z,12.87
2023-04-20T22:27:16.335Z,12.75
2023-04-20T22:30:18.712Z,12.68
2023-04-20T22:33:20.709Z,12.64
2023-04-20T22:36:23.058Z,12.62
2023-04-20T22:39:25.121Z,12.58
2023-04-20T22:42:27.483Z,12.55
2023-04-20T22:45:29.536Z,12.50
2023-04-20T22:48:31.866Z,12.47
2023-04-20T22:51:33.904Z,12.39
2023-04-20T22:54:40.139Z,12.33
2023-04-20T22:57:42.181Z,12.28
2023-04-20T23:00:44.564Z,12.29
2023-04-20T23:03:46.738Z,12.22
2023-04-20T23:06:49.116Z,12.16
2023-04-20T23:09:51.200Z,12.20
2023-04-20T23:12:54.983Z,12.17
2023-04-20T23:15:57.063Z,12.12
2023-04-20T23:18:59.757Z,12.14
2023-04-20T23:22:02.191Z,12.14
2023-04-20T23:25:04.894Z,12.07
2023-04-20T23:28:07.008Z,12.10
2023-04-20T23:31:10.560Z,12.16
2023-04-20T23:34:12.594Z,12.13
2023-04-20T23:37:15.001Z,12.02
2023-04-20T23:40:17.063Z,11.91
2023-04-20T23:43:19.541Z,11.98
2023-04-20T23:46:21.781Z,11.92
2023-04-20T23:49:24.180Z,11.87
2023-04-20T23:52:26.316Z,11.82
2023-04-20T23:55:28.782Z,12.03
2023-04-20T23:58:30.829Z,11.85
